createdAt,value
2019-02-03T00:01:34.768Z,1.60
2019-02-03T00:04:04.900Z,1.50
2019-02-03T00:06:33.663Z,1.40
2019-02-03T00:09:04.205Z,1.40
2019-02-03T00:11:34.732Z,1.30
2019-02-03T00:14:04.015Z,1.20
2019-02-03T00:16:32.986Z,1.20
2019-02-03T00:19:01.774Z,1.20
2019-02-03T00:21:30.997Z,1.30
2019-02-03T00:24:00.019Z,1.30
2019-02-03T00:26:28.841Z,1.40
2019-02-03T00:28:57.882Z,1.40
2019-02-03T00:31:26.811Z,1.40
2019-02-03T00:33:55.627Z,1.30
2019-02-03T00:36:24.522Z,1.40
2019-02-03T00:38:54.031Z,1.40
2019-02-03T00:41:23.022Z,1.30
2019-02-03T00:43:53.232Z,1.40
2019-02-03T00:46:22.033Z,1.30
2019-02-03T00:48:51.129Z,1.30
2019-02-03T00:51:19.957Z,1.30
2019-02-03T00:53:48.754Z,1.20
2019-02-03T00:56:17.634Z,1.10
2019-02-03T00:58:46.500Z,1.00
2019-02-03T01:01:15.325Z,0.90
2019-02-03T01:03:44.107Z,0.90
2019-02-03T01:06:12.996Z,0.80
2019-02-03T01:08:41.863Z,0.80
2019-02-03T01:11:10.775Z,0.80
2019-02-03T01:13:39.571Z,0.70
2019-02-03T01:16:08.557Z,0.70
2019-02-03T01:18:37.274Z,0.70
2019-02-03T01:21:06.090Z,0.70
2019-02-03T01:23:34.878Z,0.70
2019-02-03T01:26:03.818Z,0.80
2019-02-03T01:28:32.720Z,0.80
2019-02-03T01:31:01.988Z,0.90
2019-02-03T01:33:30.857Z,0.90
2019-02-03T01:35:59.641Z,0.90
2019-02-03T01:38:28.556Z,0.90
2019-02-03T01:40:57.321Z,1.00
2019-02-03T01:43:26.067Z,1.00
2019-02-03T01:45:54.953Z,1.10
2019-02-03T01:48:23.842Z,1.10
2019-02-03T01:50:52.639Z,1.10
2019-02-03T01:53:21.455Z,1.20
2019-02-03T01:55:50.184Z,1.30
2019-02-03T01:58:18.992Z,1.30
2019-02-03T02:00:47.852Z,1.30
2019-02-03T02:03:16.736Z,1.30
2019-02-03T02:05:45.603Z,1.30
2019-02-03T02:08:14.419Z,1.40
2019-02-03T02:10:43.251Z,1.40
2019-02-03T02:13:13.303Z,1.40
2019-02-03T02:15:42.131Z,1.40
2019-02-03T02:18:10.945Z,1.40
2019-02-03T02:20:39.665Z,1.40
2019-02-03T02:23:08.596Z,1.40
2019-02-03T02:25:37.411Z,1.40
2019-02-03T02:28:06.559Z,1.40
2019-02-03T02:30:35.523Z,1.50
2019-02-03T02:33:04.432Z,1.50
2019-02-03T02:35:33.314Z,1.50
2019-02-03T02:38:07.095Z,1.50
2019-02-03T02:40:32.692Z,1.50
2019-02-03T02:43:01.482Z,1.60
2019-02-03T02:45:30.222Z,1.50
2019-02-03T02:47:59.011Z,1.50
2019-02-03T02:50:33.200Z,1.50
2019-02-03T02:53:01.985Z,1.60
2019-02-03T02:55:31.291Z,1.50
2019-02-03T02:58:00.194Z,1.50
2019-02-03T03:00:29.003Z,1.50
2019-02-03T03:02:57.980Z,1.50
2019-02-03T03:05:26.913Z,1.50
2019-02-03T03:07:55.867Z,1.50
2019-02-03T03:10:24.863Z,1.50
2019-02-03T03:12:53.648Z,1.50
2019-02-03T03:15:22.509Z,1.50
2019-02-03T03:17:51.397Z,1.60
2019-02-03T03:20:21.242Z,1.50
2019-02-03T03:22:50.631Z,1.50
2019-02-03T03:25:21.399Z,1.50
2019-02-03T03:27:50.353Z,1.50
2019-02-03T03:30:21.298Z,1.50
2019-02-03T03:32:50.255Z,1.50
2019-02-03T03:35:19.389Z,1.50
2019-02-03T03:37:48.288Z,1.50
2019-02-03T03:40:25.172Z,1.50
2019-02-03T03:42:54.130Z,1.50
2019-02-03T03:45:23.150Z,1.50
2019-02-03T03:47:51.979Z,1.50
2019-02-03T03:50:20.907Z,1.50
2019-02-03T03:52:49.880Z,1.50
2019-02-03T03:55:18.810Z,1.50
2019-02-03T03:57:47.700Z,1.50
2019-02-03T04:00:19.013Z,1.50
2019-02-03T04:02:48.300Z,1.50
2019-02-03T04:05:17.231Z,1.60
2019-02-03T04:07:46.175Z,1.60
2019-02-03T04:10:19.955Z,1.60
2019-02-03T04:12:48.903Z,1.60
2019-02-03T04:15:19.370Z,1.60
2019-02-03T04:17:48.556Z,1.60
2019-02-03T04:20:20.071Z,1.50
2019-02-03T04:22:48.962Z,1.50
2019-02-03T04:25:17.919Z,1.50
2019-02-03T04:27:46.893Z,1.30
2019-02-03T04:30:22.047Z,1.30
2019-02-03T04:32:51.014Z,1.20
2019-02-03T04:35:19.841Z,1.20
2019-02-03T04:37:48.691Z,1.10
2019-02-03T04:40:19.352Z,1.00
2019-02-03T04:42:48.591Z,1.00
2019-02-03T04:45:18.140Z,1.00
2019-02-03T04:47:47.118Z,1.00
2019-02-03T04:50:17.686Z,1.00
2019-02-03T04:52:46.613Z,1.00
2019-02-03T04:55:17.666Z,0.90
2019-02-03T04:57:46.629Z,0.90
2019-02-03T05:00:22.963Z,0.90
2019-02-03T05:02:51.906Z,0.90
2019-02-03T05:05:20.803Z,0.90
2019-02-03T05:07:49.668Z,0.90
2019-02-03T05:10:19.250Z,0.90
2019-02-03T05:12:48.051Z,1.00
2019-02-03T05:15:19.374Z,1.00
2019-02-03T05:17:48.321Z,1.00
2019-02-03T05:20:19.760Z,0.90
2019-02-03T05:22:48.779Z,0.90
2019-02-03T05:25:17.723Z,0.90
2019-02-03T05:27:46.505Z,0.80
2019-02-03T05:30:18.151Z,0.70
2019-02-03T05:32:46.977Z,0.70
2019-02-03T05:35:15.792Z,0.70
2019-02-03T05:37:44.610Z,0.60
2019-02-03T05:40:15.684Z,0.60
2019-02-03T05:42:44.912Z,0.60
2019-02-03T05:45:18.827Z,0.60
2019-02-03T05:47:49.996Z,0.60
2019-02-03T05:50:20.409Z,0.70
2019-02-03T05:52:49.463Z,0.80
2019-02-03T05:55:18.802Z,0.90
2019-02-03T05:57:47.839Z,1.00
2019-02-03T06:00:24.891Z,1.00
2019-02-03T06:02:53.692Z,1.10
2019-02-03T06:05:22.549Z,1.10
2019-02-03T06:07:54.355Z,1.20
2019-02-03T06:10:23.330Z,1.20
2019-02-03T06:12:53.134Z,1.20
2019-02-03T06:15:21.971Z,1.20
2019-02-03T06:17:51.032Z,1.10
2019-02-03T06:20:20.021Z,1.00
2019-02-03T06:22:48.907Z,0.90
2019-02-03T06:25:17.878Z,0.80
2019-02-03T06:27:46.862Z,0.70
2019-02-03T06:30:24.766Z,0.70
2019-02-03T06:32:53.615Z,0.60
2019-02-03T06:35:22.486Z,0.60
2019-02-03T06:37:51.457Z,0.50
2019-02-03T06:40:20.956Z,0.50
2019-02-03T06:42:49.792Z,0.40
2019-02-03T06:45:18.610Z,0.40
2019-02-03T06:47:47.477Z,0.30
2019-02-03T06:50:16.238Z,0.30
2019-02-03T06:52:44.987Z,0.30
2019-02-03T06:55:13.906Z,0.30
2019-02-03T06:57:42.828Z,0.30
2019-02-03T07:00:13.581Z,0.30
2019-02-03T07:02:42.494Z,0.30
2019-02-03T07:05:11.530Z,0.20
2019-02-03T07:07:40.400Z,0.20
2019-02-03T07:10:11.442Z,0.30
2019-02-03T07:12:40.228Z,0.30
2019-02-03T07:15:10.299Z,0.20
2019-02-03T07:17:39.292Z,0.20
2019-02-03T07:20:18.617Z,0.20
2019-02-03T07:22:47.526Z,0.20
2019-02-03T07:25:16.374Z,0.20
2019-02-03T07:27:45.286Z,0.20
2019-02-03T07:30:27.390Z,0.20
2019-02-03T07:32:57.283Z,0.20
2019-02-03T07:35:26.216Z,0.30
2019-02-03T07:37:57.711Z,0.30
2019-02-03T07:40:26.690Z,0.30
2019-02-03T07:42:55.524Z,0.30
2019-02-03T07:45:26.286Z,0.30
2019-02-03T07:47:55.153Z,0.40
2019-02-03T07:50:24.169Z,0.40
2019-02-03T07:52:53.205Z,0.40
2019-02-03T07:55:22.124Z,0.40
2019-02-03T07:57:50.874Z,0.50
2019-02-03T08:00:21.236Z,0.50
2019-02-03T08:02:50.097Z,0.50
2019-02-03T08:05:19.063Z,0.60
2019-02-03T08:07:47.891Z,0.60
2019-02-03T08:10:25.357Z,0.60
2019-02-03T08:12:48.833Z,0.60
2019-02-03T08:15:21.168Z,0.70
2019-02-03T08:17:50.056Z,0.70
2019-02-03T08:20:21.192Z,0.80
2019-02-03T08:22:50.031Z,0.80
2019-02-03T08:25:18.961Z,0.80
2019-02-03T08:27:48.088Z,0.90
2019-02-03T08:30:25.606Z,0.90
2019-02-03T08:32:54.431Z,1.00
2019-02-03T08:35:23.294Z,1.10
2019-02-03T08:37:52.110Z,1.20
2019-02-03T08:40:36.527Z,1.30
2019-02-03T08:42:56.202Z,1.50
2019-02-03T08:45:25.318Z,1.70
2019-02-03T08:47:54.500Z,1.80
2019-02-03T08:50:24.568Z,1.90
2019-02-03T08:52:53.441Z,1.90
2019-02-03T08:55:22.481Z,1.80
2019-02-03T08:57:51.338Z,1.60
2019-02-03T09:00:28.683Z,1.50
2019-02-03T09:02:57.608Z,1.50
2019-02-03T09:05:26.601Z,1.50
2019-02-03T09:07:55.457Z,1.50
2019-02-03T09:10:25.837Z,1.60
2019-02-03T09:12:54.631Z,1.60
2019-02-03T09:15:27.942Z,1.70
2019-02-03T09:17:56.881Z,1.80
2019-02-03T09:20:33.882Z,1.80
2019-02-03T09:23:03.127Z,1.90
2019-02-03T09:25:32.028Z,1.90
2019-02-03T09:28:00.955Z,2.00
2019-02-03T09:30:31.750Z,2.00
2019-02-03T09:33:00.601Z,2.10
2019-02-03T09:35:29.401Z,2.10
2019-02-03T09:37:58.360Z,2.20
2019-02-03T09:40:29.491Z,2.30
2019-02-03T09:42:58.352Z,2.30
2019-02-03T09:45:27.616Z,2.40
2019-02-03T09:47:56.466Z,2.40
2019-02-03T09:50:29.681Z,2.50
2019-02-03T09:53:00.372Z,2.50
2019-02-03T09:55:29.482Z,2.60
2019-02-03T09:57:59.528Z,2.60
2019-02-03T10:00:30.469Z,2.70
2019-02-03T10:03:00.091Z,2.70
2019-02-03T10:05:28.973Z,2.70
2019-02-03T10:07:57.715Z,2.70
2019-02-03T10:10:28.768Z,2.80
2019-02-03T10:12:58.020Z,2.90
2019-02-03T10:15:27.070Z,2.90
2019-02-03T10:17:56.014Z,2.90
2019-02-03T10:20:24.973Z,3.00
2019-02-03T10:22:53.849Z,3.00
2019-02-03T10:25:24.874Z,3.10
2019-02-03T10:27:53.822Z,3.20
2019-02-03T10:30:23.951Z,3.20
2019-02-03T10:32:52.982Z,3.30
2019-02-03T10:35:26.255Z,3.30
2019-02-03T10:37:55.207Z,3.30
2019-02-03T10:40:26.799Z,3.40
2019-02-03T10:42:57.477Z,3.50
2019-02-03T10:45:26.412Z,3.50
2019-02-03T10:47:55.373Z,3.60
2019-02-03T10:50:27.082Z,3.70
2019-02-03T10:52:56.125Z,3.80
2019-02-03T10:55:25.076Z,3.80
2019-02-03T10:57:54.241Z,3.80
2019-02-03T11:00:31.658Z,3.90
2019-02-03T11:03:00.634Z,3.90
2019-02-03T11:05:41.167Z,3.90
2019-02-03T11:08:11.251Z,4.00
2019-02-03T11:10:40.299Z,4.00
2019-02-03T11:13:09.204Z,4.10
2019-02-03T11:15:38.101Z,4.20
2019-02-03T11:18:07.029Z,4.20
2019-02-03T11:20:36.146Z,4.20
2019-02-03T11:23:05.222Z,4.40
2019-02-03T11:25:34.165Z,4.50
2019-02-03T11:28:03.782Z,4.60
2019-02-03T11:30:32.793Z,4.70
2019-02-03T11:33:07.871Z,4.70
2019-02-03T11:35:33.584Z,4.80
2019-02-03T11:38:03.359Z,4.90
2019-02-03T11:40:34.535Z,5.00
2019-02-03T11:43:03.862Z,5.20
2019-02-03T11:45:35.500Z,5.30
2019-02-03T11:48:09.908Z,5.50
2019-02-03T11:50:41.332Z,5.60
2019-02-03T11:53:12.721Z,5.60
2019-02-03T11:55:41.601Z,5.80
2019-02-03T11:58:11.258Z,6.00
2019-02-03T12:00:40.181Z,6.20
2019-02-03T12:03:09.164Z,6.30
2019-02-03T16:33:32.791Z,5.00
2019-02-03T16:36:02.204Z,5.10
2019-02-03T16:38:31.466Z,5.10
2019-02-03T16:41:01.025Z,5.10
2019-02-03T16:43:30.577Z,5.10
2019-02-03T16:46:00.123Z,5.10
2019-02-03T16:48:29.583Z,5.10
2019-02-03T16:50:58.922Z,5.00
2019-02-03T16:53:28.566Z,5.00
2019-02-03T16:55:57.923Z,4.90
2019-02-03T16:58:27.540Z,4.90
2019-02-03T17:00:56.826Z,4.90
2019-02-03T17:03:26.214Z,4.90
2019-02-03T17:05:55.793Z,4.90
2019-02-03T17:08:25.260Z,4.80
2019-02-03T17:10:54.641Z,4.80
2019-02-03T17:13:25.174Z,4.70
2019-02-03T17:15:54.597Z,4.70
2019-02-03T17:18:23.956Z,4.60
2019-02-03T17:21:01.441Z,4.60
2019-02-03T17:23:24.124Z,4.60
2019-02-03T17:25:59.220Z,4.50
2019-02-03T17:28:28.684Z,4.60
2019-02-03T17:30:58.093Z,4.60
2019-02-03T17:33:27.572Z,4.60
2019-02-03T17:35:56.897Z,4.60
2019-02-03T17:38:26.278Z,4.50
2019-02-03T17:40:55.582Z,4.50
2019-02-03T17:43:24.953Z,4.40
2019-02-03T17:45:54.292Z,4.30
2019-02-03T17:48:23.644Z,4.30
2019-02-03T17:50:53.087Z,4.20
2019-02-03T17:53:22.406Z,4.10
2019-02-03T17:55:51.985Z,4.00
2019-02-03T17:58:21.409Z,3.90
2019-02-03T18:00:50.978Z,3.90
2019-02-03T18:03:20.181Z,3.80
2019-02-03T18:05:50.183Z,3.80
2019-02-03T18:08:19.865Z,3.70
2019-02-03T18:10:49.300Z,3.70
2019-02-03T18:13:18.563Z,3.60
2019-02-03T18:15:47.997Z,3.50
2019-02-03T18:18:17.686Z,3.50
2019-02-03T18:20:48.351Z,3.40
2019-02-03T18:23:17.772Z,3.40
2019-02-03T18:25:48.195Z,3.30
2019-02-03T18:28:17.629Z,3.20
2019-02-03T18:30:47.112Z,3.20
2019-02-03T18:33:16.445Z,3.10
2019-02-03T18:35:46.077Z,3.10
2019-02-03T18:38:15.514Z,3.00
2019-02-03T18:40:44.934Z,3.00
2019-02-03T18:43:14.340Z,2.90
2019-02-03T18:45:44.134Z,2.90
2019-02-03T18:48:13.791Z,2.90
2019-02-03T18:50:43.469Z,2.80
2019-02-03T18:53:12.921Z,2.80
2019-02-03T18:55:45.408Z,2.70
2019-02-03T18:58:14.851Z,2.70
2019-02-03T19:00:44.310Z,2.70
2019-02-03T19:03:13.959Z,2.70
2019-02-03T19:05:43.595Z,2.60
2019-02-03T19:08:13.351Z,2.60
2019-02-03T19:10:42.802Z,2.60
2019-02-03T19:13:12.335Z,2.60
2019-02-03T19:15:42.109Z,2.60
2019-02-03T19:18:11.593Z,2.60
2019-02-03T19:20:42.297Z,2.50
2019-02-03T19:23:12.858Z,2.50
2019-02-03T19:25:42.781Z,2.50
2019-02-03T19:28:12.160Z,2.50
2019-02-03T19:30:41.525Z,2.40
2019-02-03T19:33:10.991Z,2.40
2019-02-03T19:35:40.425Z,2.40
2019-02-03T19:38:10.415Z,2.40
2019-02-03T19:40:39.794Z,2.40
2019-02-03T19:43:09.496Z,2.30
2019-02-03T19:45:38.858Z,2.30
2019-02-03T19:48:08.339Z,2.30
2019-02-03T19:50:39.557Z,2.30
2019-02-03T19:53:10.443Z,2.20
2019-02-03T19:55:39.843Z,2.20
2019-02-03T19:58:09.262Z,2.20
2019-02-03T20:00:43.757Z,2.20
2019-02-03T20:03:13.187Z,2.10
2019-02-03T20:05:43.426Z,2.10
2019-02-03T20:08:12.943Z,2.10
2019-02-03T20:10:42.467Z,2.10
2019-02-03T20:13:11.739Z,2.10
2019-02-03T20:15:41.253Z,2.10
2019-02-03T20:18:10.781Z,2.10
2019-02-03T20:20:40.760Z,2.10
2019-02-03T20:23:10.549Z,2.10
2019-02-03T20:25:40.522Z,2.00
2019-02-03T20:28:09.963Z,2.00
2019-02-03T20:30:39.605Z,2.00
2019-02-03T20:33:09.005Z,1.90
2019-02-03T20:35:38.691Z,1.90
2019-02-03T20:38:08.139Z,1.90
2019-02-03T20:40:40.649Z,1.80
2019-02-03T20:43:10.085Z,1.80
2019-02-03T20:45:48.838Z,1.70
2019-02-03T20:48:11.206Z,1.70
2019-02-03T20:50:40.917Z,1.70
2019-02-03T20:53:10.440Z,1.60
2019-02-03T20:55:39.883Z,1.60
2019-02-03T20:58:09.200Z,1.60
2019-02-03T21:00:38.691Z,1.60
2019-02-03T21:03:08.174Z,1.50
2019-02-03T21:05:37.498Z,1.50
2019-02-03T21:08:06.922Z,1.50
2019-02-03T21:10:36.337Z,1.50
2019-02-03T21:13:11.215Z,1.40
2019-02-03T21:15:36.812Z,1.40
2019-02-03T21:18:07.953Z,1.40
2019-02-03T21:20:37.438Z,1.40
2019-02-03T21:23:06.823Z,1.40
2019-02-03T21:25:36.232Z,1.30
2019-02-03T21:28:05.762Z,1.30
2019-02-03T21:30:37.054Z,1.30
2019-02-03T21:33:06.765Z,1.20
2019-02-03T21:35:36.032Z,1.20
2019-02-03T21:38:06.071Z,1.20
2019-02-03T21:40:35.522Z,1.20
2019-02-03T21:43:05.413Z,1.20
2019-02-03T21:45:44.435Z,1.20
2019-02-03T21:48:06.494Z,1.20
2019-02-03T21:50:35.949Z,1.20
2019-02-03T21:53:05.419Z,1.20
2019-02-03T21:55:34.759Z,1.20
2019-02-03T21:58:04.554Z,1.20
2019-02-03T22:00:33.975Z,1.20
2019-02-03T22:03:03.361Z,1.20
2019-02-03T22:05:32.855Z,1.20
2019-02-03T22:08:02.478Z,1.20
2019-02-03T22:10:33.784Z,1.20
2019-02-03T22:13:03.901Z,1.20
2019-02-03T22:15:33.260Z,1.20
2019-02-03T22:18:02.639Z,1.20
2019-02-03T22:20:31.926Z,1.10
2019-02-03T22:23:01.332Z,1.10
2019-02-03T22:25:30.642Z,1.20
2019-02-03T22:28:00.007Z,1.10
2019-02-03T22:30:34.547Z,1.10
2019-02-03T22:33:05.231Z,1.10
2019-02-03T22:35:34.600Z,1.10
2019-02-03T22:38:04.857Z,1.10
2019-02-03T22:40:34.167Z,1.10
2019-02-03T22:43:03.571Z,1.00
2019-02-03T22:45:32.959Z,1.00
2019-02-03T22:48:02.154Z,1.00
2019-02-03T22:50:32.824Z,1.00
2019-02-03T22:53:02.372Z,0.90
2019-02-03T22:55:31.900Z,0.90
2019-02-03T22:58:01.224Z,0.90
2019-02-03T23:00:51.450Z,0.90
2019-02-03T23:03:30.646Z,0.80
2019-02-03T23:06:00.093Z,0.80
2019-02-03T23:08:29.454Z,0.80
2019-02-03T23:10:58.694Z,0.80
2019-02-03T23:13:27.921Z,0.80
2019-02-03T23:15:57.373Z,0.80
2019-02-03T23:18:26.726Z,0.80
2019-02-03T23:20:55.990Z,0.80
2019-02-03T23:23:25.358Z,0.70
2019-02-03T23:25:54.707Z,0.70
2019-02-03T23:28:24.449Z,0.60
2019-02-03T23:30:53.798Z,0.60
2019-02-03T23:33:23.124Z,0.50
2019-02-03T23:35:52.519Z,0.50
2019-02-03T23:38:21.749Z,0.50
2019-02-03T23:40:51.206Z,0.50
2019-02-03T23:43:20.645Z,0.40
2019-02-03T23:45:50.235Z,0.40
2019-02-03T23:48:19.539Z,0.40
2019-02-03T23:50:48.836Z,0.40
2019-02-03T23:53:18.075Z,0.30
2019-02-03T23:55:47.433Z,0.30
2019-02-03T23:58:16.667Z,0.30
